Time;durP1;ratioP1;P1;durP2;ratioP2;P2;SDS_P1;SDS_P2;PMS_P1;PMS_P2;Temp;Humidity;BMP_temperature;BMP_pressure;BME280_temperature;BME280_humidity;BME280_pressure;Samples;Min_cycle;Max_cycle;Signal;HPM_P1;HPM_P2
2021/05/30 00:01:13;;;;;;;12.63;10.20;;;11.40;99.90;;;;;;5012043;28;20802;-72
2021/05/30 00:03:41;;;;;;;11.83;9.40;;;11.40;99.90;;;;;;5010909;28;20947;-72
2021/05/30 00:06:08;;;;;;;14.30;9.53;;;11.40;99.90;;;;;;4995999;28;20799;-72
2021/05/30 00:08:35;;;;;;;10.80;9.70;;;11.30;99.90;;;;;;5012394;28;20453;-72
2021/05/30 00:11:02;;;;;;;11.20;9.60;;;11.30;99.90;;;;;;5011606;28;20439;-72
2021/05/30 00:13:29;;;;;;;11.07;9.10;;;11.20;99.90;;;;;;4994819;28;20496;-72
2021/05/30 00:15:56;;;;;;;12.87;9.50;;;11.10;99.90;;;;;;5013386;28;20421;-72
2021/05/30 00:18:23;;;;;;;11.93;10.00;;;11.10;99.90;;;;;;5011847;28;20463;-72
2021/05/30 00:20:50;;;;;;;13.03;9.63;;;11.10;99.90;;;;;;5001659;28;20473;-72
2021/05/30 00:23:17;;;;;;;14.93;9.97;;;11.10;99.90;;;;;;5013022;28;20437;-72
2021/05/30 00:25:43;;;;;;;12.90;9.50;;;11.10;99.90;;;;;;5010033;28;20490;-72
2021/05/30 00:28:10;;;;;;;12.50;9.73;;;11.10;99.90;;;;;;5011261;28;20453;-72
2021/05/30 00:30:37;;;;;;;10.30;9.20;;;11.00;99.90;;;;;;5004457;28;21001;-72
2021/05/30 00:33:04;;;;;;;14.90;10.17;;;11.00;99.90;;;;;;5011732;28;20856;-72
2021/05/30 00:35:31;;;;;;;11.13;9.53;;;11.00;99.90;;;;;;5001640;28;20846;-72
2021/05/30 00:37:58;;;;;;;13.97;10.07;;;10.90;99.90;;;;;;5011677;28;20448;-72
2021/05/30 00:40:25;;;;;;;12.43;10.65;;;10.90;99.90;;;;;;5006784;28;20489;-72
2021/05/30 00:42:52;;;;;;;13.27;11.27;;;10.90;99.90;;;;;;5008310;28;20178;-72
2021/05/30 00:45:19;;;;;;;16.30;10.40;;;10.90;99.90;;;;;;5011306;28;20551;-72
2021/05/30 00:47:47;;;;;;;13.70;9.93;;;10.80;99.90;;;;;;4994471;28;20681;-72
2021/05/30 00:50:14;;;;;;;11.45;10.25;;;10.80;99.90;;;;;;5011563;28;20548;-72
2021/05/30 00:52:43;;;;;;;13.60;10.90;;;10.70;99.90;;;;;;5013289;28;20182;-72
2021/05/30 00:55:11;;;;;;;13.30;9.13;;;10.70;99.90;;;;;;5009338;28;20483;-72
2021/05/30 00:57:39;;;;;;;14.75;11.40;;;10.70;99.90;;;;;;5012392;28;20223;-72
2021/05/30 01:00:09;;;;;;;12.73;10.37;;;10.70;99.90;;;;;;5010870;28;20217;-72
2021/05/30 01:02:37;;;;;;;11.43;9.37;;;10.60;99.90;;;;;;4994273;28;20467;-72
2021/05/30 01:05:08;;;;;;;12.77;10.20;;;10.60;99.90;;;;;;5011060;28;20495;-72
2021/05/30 01:07:41;;;;;;;15.77;10.87;;;10.50;99.90;;;;;;5012432;28;20455;-72
2021/05/30 01:10:18;;;;;;;16.50;11.10;;;10.50;99.90;;;;;;5010576;28;20848;-72
2021/05/30 01:12:47;;;;;;;13.00;10.20;;;10.50;99.90;;;;;;5012357;28;20200;-72
2021/05/30 01:15:15;;;;;;;14.32;11.18;;;10.50;99.90;;;;;;5011527;28;20220;-72
2021/05/30 01:17:44;;;;;;;14.73;11.27;;;10.50;99.90;;;;;;5011873;28;20311;-72
2021/05/30 01:20:14;;;;;;;15.60;11.95;;;10.40;99.90;;;;;;5009792;28;20567;-72
2021/05/30 01:22:43;;;;;;;12.82;11.00;;;10.30;99.90;;;;;;5012466;28;20210;-72
2021/05/30 01:25:15;;;;;;;13.60;11.32;;;10.30;99.90;;;;;;5008579;28;20305;-72
2021/05/30 01:27:43;;;;;;;15.52;10.85;;;10.30;99.90;;;;;;4994340;28;20550;-72
2021/05/30 01:30:11;;;;;;;13.38;11.50;;;10.30;99.90;;;;;;5011123;28;20229;-72
2021/05/30 01:32:43;;;;;;;17.05;11.40;;;10.30;99.90;;;;;;5010993;28;20186;-72
2021/05/30 01:35:11;;;;;;;16.58;12.02;;;10.30;99.90;;;;;;5005514;28;20223;-72
2021/05/30 01:37:39;;;;;;;13.90;11.93;;;10.20;99.90;;;;;;5011340;28;20208;-72
2021/05/30 01:40:07;;;;;;;12.33;10.77;;;10.30;99.90;;;;;;5008289;28;20240;-72
2021/05/30 01:42:34;;;;;;;16.45;12.50;;;10.10;99.90;;;;;;5012207;28;20457;-72
2021/05/30 01:45:02;;;;;;;14.70;10.98;;;10.10;99.90;;;;;;5011326;28;20220;-72
2021/05/30 01:47:29;;;;;;;16.92;11.43;;;10.10;99.90;;;;;;4978825;28;20213;-72
2021/05/30 01:49:56;;;;;;;14.60;13.07;;;10.00;99.90;;;;;;4992326;28;20249;-72
2021/05/30 01:52:22;;;;;;;13.75;11.20;;;10.00;99.90;;;;;;5011468;28;20435;-72
2021/05/30 01:54:51;;;;;;;13.85;11.00;;;10.10;99.90;;;;;;5010288;28;20598;-72
2021/05/30 01:57:21;;;;;;;17.98;12.63;;;10.10;99.90;;;;;;5009165;28;20208;-72
2021/05/30 01:59:48;;;;;;;16.75;11.27;;;10.00;99.90;;;;;;5011426;28;20219;-72
2021/05/30 02:02:17;;;;;;;21.60;12.05;;;10.10;99.90;;;;;;5012151;28;20186;-72
2021/05/30 02:04:48;;;;;;;14.32;11.50;;;10.10;99.90;;;;;;4997346;28;20884;-72
2021/05/30 02:07:16;;;;;;;14.27;11.98;;;10.00;99.90;;;;;;4998996;28;20202;-72
2021/05/30 02:09:44;;;;;;;15.07;11.45;;;10.00;99.90;;;;;;4998803;28;20576;-72
2021/05/30 02:12:10;;;;;;;15.55;11.63;;;9.90;99.90;;;;;;4999677;28;20190;-72
2021/05/30 02:14:37;;;;;;;16.45;12.48;;;9.90;99.90;;;;;;5011186;28;20238;-72
2021/05/30 02:17:04;;;;;;;12.95;11.10;;;9.90;99.90;;;;;;5011178;28;20590;-72
2021/05/30 02:19:31;;;;;;;14.75;11.75;;;9.80;99.90;;;;;;5009647;28;20708;-72
2021/05/30 02:22:00;;;;;;;12.80;10.88;;;9.80;99.90;;;;;;4997606;28;20201;-72
2021/05/30 02:24:27;;;;;;;15.73;12.30;;;9.80;99.90;;;;;;4993609;28;20679;-72
2021/05/30 02:26:55;;;;;;;14.00;11.30;;;9.80;99.90;;;;;;5010052;28;20221;-72
2021/05/30 02:29:37;;;;;;;13.95;12.23;;;9.80;99.90;;;;;;5010789;28;20218;-72
2021/05/30 02:32:05;;;;;;;15.18;11.75;;;9.70;99.90;;;;;;5011421;28;20190;-72
2021/05/30 02:34:33;;;;;;;13.20;11.80;;;9.70;99.90;;;;;;4983097;28;20226;-72
2021/05/30 02:37:02;;;;;;;15.07;11.77;;;9.70;99.90;;;;;;5010720;28;20203;-72
2021/05/30 02:39:29;;;;;;;14.57;11.98;;;9.70;99.90;;;;;;5009123;28;20223;-72
2021/05/30 02:41:55;;;;;;;12.95;11.57;;;9.60;99.90;;;;;;5011228;28;20186;-72
2021/05/30 02:44:22;;;;;;;14.30;11.90;;;9.60;99.90;;;;;;5013606;28;20221;-72
2021/05/30 02:46:49;;;;;;;14.60;12.30;;;9.60;99.90;;;;;;5015455;28;20704;-72
2021/05/30 02:49:17;;;;;;;21.02;13.35;;;9.60;99.90;;;;;;5012718;28;20227;-72
2021/05/30 02:51:44;;;;;;;18.20;14.00;;;9.50;99.90;;;;;;5015021;28;20188;-72
2021/05/30 02:54:11;;;;;;;14.57;12.68;;;9.60;99.90;;;;;;5014326;28;20232;-72
2021/05/30 02:56:38;;;;;;;16.13;12.57;;;9.50;99.90;;;;;;4995728;28;20192;-72
2021/05/30 02:59:04;;;;;;;14.52;12.50;;;9.60;99.90;;;;;;5014222;28;20210;-72
2021/05/30 03:01:34;;;;;;;20.42;13.13;;;9.50;99.90;;;;;;5015014;28;20190;-72
2021/05/30 03:04:01;;;;;;;16.42;12.40;;;9.50;99.90;;;;;;4994053;28;20633;-72
2021/05/30 03:06:28;;;;;;;16.55;13.82;;;9.50;99.90;;;;;;5012399;28;20576;-72
2021/05/30 03:08:58;;;;;;;18.60;14.60;;;9.40;99.90;;;;;;5014013;28;20222;-72
2021/05/30 03:11:26;;;;;;;17.08;14.40;;;9.50;99.90;;;;;;5013366;28;20194;-72
2021/05/30 03:13:54;;;;;;;18.50;14.20;;;9.50;99.90;;;;;;5013949;28;20214;-72
2021/05/30 03:16:21;;;;;;;17.83;14.10;;;9.50;99.90;;;;;;5014471;28;20192;-72
2021/05/30 03:18:48;;;;;;;15.27;13.10;;;9.40;99.90;;;;;;5013746;28;20236;-72
2021/05/30 03:21:16;;;;;;;16.75;14.05;;;9.40;99.90;;;;;;5009776;28;20205;-72
2021/05/30 03:23:44;;;;;;;16.35;12.30;;;9.40;99.90;;;;;;5014506;28;20192;-72
2021/05/30 03:26:11;;;;;;;15.05;11.93;;;9.40;99.90;;;;;;5012817;28;20218;-72
2021/05/30 03:28:38;;;;;;;15.23;12.23;;;9.50;99.90;;;;;;5013896;28;20212;-72
2021/05/30 03:31:05;;;;;;;16.00;13.43;;;9.40;99.90;;;;;;5014413;28;20193;-72
2021/05/30 03:33:32;;;;;;;16.77;12.63;;;9.40;99.90;;;;;;5012942;28;20183;-72
2021/05/30 03:36:02;;;;;;;13.77;12.40;;;9.30;99.90;;;;;;4996407;28;20210;-72
2021/05/30 03:38:31;;;;;;;14.10;12.18;;;9.30;99.90;;;;;;5013851;28;20221;-72
2021/05/30 03:41:09;;;;;;;14.23;10.65;;;9.30;99.90;;;;;;5004229;28;20214;-72
2021/05/30 03:43:36;;;;;;;13.95;10.75;;;9.40;99.90;;;;;;4967551;28;20193;-72
2021/05/30 03:46:03;;;;;;;11.90;9.85;;;9.30;99.90;;;;;;5013940;28;20652;-72
2021/05/30 03:48:30;;;;;;;12.45;10.25;;;9.30;99.90;;;;;;4982808;28;20314;-72
2021/05/30 03:50:57;;;;;;;11.60;9.95;;;9.30;99.90;;;;;;5005897;28;20190;-72
2021/05/30 03:53:24;;;;;;;14.15;10.40;;;9.40;99.90;;;;;;5013886;28;20185;-72
2021/05/30 03:55:51;;;;;;;12.05;10.73;;;9.50;99.90;;;;;;5011657;28;20215;-72
2021/05/30 03:58:20;;;;;;;11.52;9.38;;;9.40;99.90;;;;;;5012311;28;20224;-72
2021/05/30 04:00:46;;;;;;;10.48;9.23;;;9.30;99.90;;;;;;5011957;28;20257;-72
2021/05/30 04:03:13;;;;;;;13.05;9.32;;;9.30;99.90;;;;;;5013573;28;20547;-72
2021/05/30 04:05:40;;;;;;;11.15;9.48;;;9.20;99.90;;;;;;4994555;28;20305;-72
2021/05/30 04:08:07;;;;;;;11.52;9.45;;;9.10;99.90;;;;;;4995983;28;20212;-72
2021/05/30 04:10:34;;;;;;;11.48;8.95;;;9.20;99.90;;;;;;5009902;28;20221;-72
2021/05/30 04:13:01;;;;;;;10.82;9.02;;;9.20;99.90;;;;;;4996080;28;20193;-72
2021/05/30 04:15:27;;;;;;;10.00;8.30;;;9.20;99.90;;;;;;5013045;28;20695;-72
2021/05/30 04:17:54;;;;;;;10.98;9.15;;;9.30;99.90;;;;;;5011266;28;20202;-72
2021/05/30 04:20:21;;;;;;;10.20;7.97;;;9.30;99.90;;;;;;5012847;28;20213;-72
2021/05/30 04:22:48;;;;;;;9.77;8.77;;;9.20;99.90;;;;;;4996158;28;20280;-72
2021/05/30 04:25:16;;;;;;;10.60;8.40;;;9.10;99.90;;;;;;5004307;28;20214;-72
2021/05/30 04:27:46;;;;;;;10.77;9.40;;;9.20;99.90;;;;;;5012017;28;20213;-72
2021/05/30 04:30:16;;;;;;;10.82;9.15;;;9.30;99.90;;;;;;4995034;28;20213;-72
2021/05/30 04:32:43;;;;;;;12.20;10.68;;;9.40;99.90;;;;;;5013090;28;20194;-72
2021/05/30 04:35:11;;;;;;;10.60;9.60;;;9.40;99.90;;;;;;5010628;28;20612;-72
2021/05/30 04:37:39;;;;;;;13.90;10.80;;;9.50;99.90;;;;;;4994339;28;20212;-72
2021/05/30 04:40:08;;;;;;;10.68;8.98;;;9.50;99.90;;;;;;5010700;28;20218;-72
2021/05/30 04:42:35;;;;;;;11.57;9.50;;;9.60;99.90;;;;;;4995526;28;20178;-72
2021/05/30 04:45:04;;;;;;;11.13;10.00;;;9.70;99.90;;;;;;4994773;28;20725;-72
2021/05/30 04:47:31;;;;;;;10.73;9.00;;;9.70;99.90;;;;;;4996846;28;20626;-72
2021/05/30 04:49:59;;;;;;;10.75;9.23;;;9.70;99.90;;;;;;4970805;28;20296;-72
2021/05/30 04:52:26;;;;;;;17.30;12.45;;;9.70;99.90;;;;;;4994749;28;20202;-72
2021/05/30 04:54:52;;;;;;;14.15;12.65;;;9.80;99.90;;;;;;4993632;28;20222;-72
2021/05/30 04:57:19;;;;;;;16.38;14.50;;;9.90;99.90;;;;;;5002836;28;20208;-72
2021/05/30 04:59:46;;;;;;;19.50;15.00;;;10.10;99.90;;;;;;5012100;28;20572;-72
2021/05/30 05:02:20;;;;;;;21.83;17.70;;;10.20;99.90;;;;;;5012283;28;20215;-72
2021/05/30 05:04:47;;;;;;;17.52;13.85;;;10.30;99.90;;;;;;5009558;28;20503;-73
2021/05/30 05:07:15;;;;;;;17.53;15.10;;;10.50;99.90;;;;;;5011799;28;20220;-72
2021/05/30 05:09:42;;;;;;;19.10;16.08;;;10.60;99.90;;;;;;5012060;28;20460;-72
2021/05/30 05:12:09;;;;;;;18.77;16.87;;;10.70;99.90;;;;;;5009617;28;20197;-72
2021/05/30 05:14:36;;;;;;;20.77;17.83;;;10.80;99.90;;;;;;4993991;28;21116;-72
2021/05/30 05:17:06;;;;;;;25.23;19.70;;;11.00;99.90;;;;;;5012122;28;20201;-72
2021/05/30 05:19:33;;;;;;;23.40;17.33;;;11.00;99.90;;;;;;5008608;28;20996;-72
2021/05/30 05:22:00;;;;;;;19.97;17.80;;;11.20;99.90;;;;;;4994316;28;20429;-72
2021/05/30 05:24:27;;;;;;;25.73;18.85;;;11.30;99.90;;;;;;5011698;28;20548;-72
2021/05/30 05:26:54;;;;;;;21.03;17.43;;;11.30;99.90;;;;;;5001229;28;20582;-72
2021/05/30 05:29:23;;;;;;;22.90;17.90;;;11.40;99.90;;;;;;4993401;28;20472;-72
2021/05/30 05:31:50;;;;;;;20.47;18.23;;;11.60;99.90;;;;;;5012144;28;20565;-72
2021/05/30 05:34:17;;;;;;;31.27;18.80;;;11.60;99.90;;;;;;5011407;28;20464;-72
2021/05/30 05:36:44;;;;;;;21.40;17.70;;;11.60;99.90;;;;;;4992288;28;20472;-72
2021/05/30 05:39:13;;;;;;;27.10;18.90;;;11.60;99.90;;;;;;5011188;28;21005;-72
2021/05/30 05:41:40;;;;;;;24.27;19.33;;;11.70;99.90;;;;;;5010774;28;20444;-72
2021/05/30 05:44:07;;;;;;;19.70;16.57;;;11.80;99.90;;;;;;5011493;28;20452;-72
2021/05/30 05:46:34;;;;;;;21.27;16.50;;;11.80;99.90;;;;;;5011814;28;20447;-72
2021/05/30 05:49:01;;;;;;;20.20;16.30;;;12.00;99.90;;;;;;5008876;28;20473;-73
2021/05/30 05:51:28;;;;;;;18.43;14.80;;;12.10;99.90;;;;;;5011489;28;20813;-72
2021/05/30 05:53:55;;;;;;;18.77;15.13;;;12.20;99.90;;;;;;5011162;28;20469;-72
2021/05/30 05:56:22;;;;;;;15.57;13.87;;;12.20;99.90;;;;;;5009902;28;20469;-72
2021/05/30 05:58:51;;;;;;;17.53;15.00;;;12.40;99.90;;;;;;5010596;28;20535;-72
2021/05/30 06:01:17;;;;;;;17.53;15.67;;;12.70;99.90;;;;;;4994257;28;20437;-72
2021/05/30 06:03:47;;;;;;;21.53;17.43;;;13.00;99.90;;;;;;5011167;28;20854;-73
2021/05/30 06:06:22;;;;;;;15.73;13.40;;;13.50;99.90;;;;;;5011194;28;20449;-72
2021/05/30 06:08:48;;;;;;;14.73;13.10;;;14.40;99.90;;;;;;5010783;28;20487;-71
2021/05/30 06:11:15;;;;;;;19.90;13.87;;;14.70;99.90;;;;;;5010030;28;20815;-71
2021/05/30 06:13:49;;;;;;;14.43;12.83;;;15.30;99.90;;;;;;5001752;28;20903;-71
2021/05/30 06:16:16;;;;;;;14.97;13.50;;;15.80;99.90;;;;;;4996090;28;20507;-73
2021/05/30 06:18:46;;;;;;;14.10;12.00;;;16.30;99.90;;;;;;5013340;28;20468;-71
2021/05/30 06:21:13;;;;;;;12.87;11.60;;;16.40;99.90;;;;;;5016360;28;20441;-71
2021/05/30 06:23:41;;;;;;;13.53;12.13;;;16.40;99.90;;;;;;5010310;28;20529;-71
2021/05/30 06:26:10;;;;;;;15.40;14.10;;;16.40;99.90;;;;;;4993774;28;21058;-71
2021/05/30 06:28:37;;;;;;;13.90;12.60;;;16.20;99.90;;;;;;4995333;28;20464;-71
2021/05/30 06:31:04;;;;;;;14.13;12.83;;;16.40;99.90;;;;;;5015473;28;20531;-72
2021/05/30 06:33:31;;;;;;;14.17;12.67;;;16.30;99.90;;;;;;5006916;28;20445;-73
2021/05/30 06:35:58;;;;;;;14.47;12.90;;;16.00;99.90;;;;;;5003135;28;20840;-72
2021/05/30 06:38:25;;;;;;;14.00;12.30;;;15.90;99.90;;;;;;4994118;28;20463;-73
2021/05/30 06:40:52;;;;;;;16.70;12.93;;;15.90;99.90;;;;;;4991267;28;20564;-73
2021/05/30 06:43:18;;;;;;;15.83;12.00;;;15.80;99.90;;;;;;5014716;28;20969;-73
2021/05/30 06:45:46;;;;;;;12.13;10.80;;;15.70;99.90;;;;;;5014341;28;21077;-73
2021/05/30 06:48:13;;;;;;;14.40;11.67;;;15.60;99.90;;;;;;5011644;28;20449;-73
2021/05/30 06:50:40;;;;;;;12.83;11.53;;;15.60;99.90;;;;;;4997015;28;20502;-73
2021/05/30 06:53:07;;;;;;;12.53;10.90;;;15.50;99.90;;;;;;5015034;28;20479;-73
2021/05/30 06:55:34;;;;;;;13.07;10.90;;;15.60;99.90;;;;;;5012438;28;20471;-72
2021/05/30 06:58:03;;;;;;;12.57;10.90;;;15.60;99.90;;;;;;5014606;28;20459;-72
2021/05/30 07:00:31;;;;;;;13.20;11.27;;;15.60;99.90;;;;;;4996738;28;20532;-72
2021/05/30 07:02:58;;;;;;;17.53;11.77;;;15.50;99.90;;;;;;4995757;28;20476;-72
2021/05/30 07:05:25;;;;;;;14.00;10.50;;;15.50;99.90;;;;;;4987007;28;20471;-72
2021/05/30 07:07:52;;;;;;;13.70;12.30;;;15.50;99.90;;;;;;4996788;28;20508;-72
2021/05/30 07:10:23;;;;;;;14.77;12.20;;;15.50;99.90;;;;;;4992571;28;20480;-72
2021/05/30 07:12:50;;;;;;;16.70;13.00;;;15.50;99.90;;;;;;4991911;28;20447;-72
2021/05/30 07:15:16;;;;;;;15.30;12.40;;;15.50;99.90;;;;;;5013259;28;20469;-72
2021/05/30 07:17:45;;;;;;;14.23;12.80;;;15.50;99.90;;;;;;4990241;28;20471;-73
2021/05/30 07:20:16;;;;;;;11.90;10.67;;;15.60;99.90;;;;;;5013361;28;20553;-72
2021/05/30 07:22:43;;;;;;;16.43;12.37;;;15.70;99.90;;;;;;5014400;28;20453;-72
2021/05/30 07:25:11;;;;;;;14.17;12.67;;;15.80;99.90;;;;;;5011185;28;20630;-73
2021/05/30 07:27:40;;;;;;;14.20;12.20;;;16.00;99.90;;;;;;5013377;28;20459;-73
2021/05/30 07:30:08;;;;;;;13.20;11.10;;;16.00;99.90;;;;;;5013792;28;20464;-74
2021/05/30 07:32:35;;;;;;;12.40;10.40;;;16.00;99.80;;;;;;5014262;28;20860;-74
2021/05/30 07:35:06;;;;;;;15.23;12.53;;;16.00;99.10;;;;;;5011874;28;20457;-74
2021/05/30 07:37:33;;;;;;;13.90;12.50;;;16.10;99.90;;;;;;5013363;28;20548;-74
2021/05/30 07:40:00;;;;;;;14.57;12.83;;;16.10;99.90;;;;;;5012008;28;20469;-74
2021/05/30 07:42:27;;;;;;;15.23;13.63;;;16.20;99.90;;;;;;5013999;28;20528;-74
2021/05/30 07:44:54;;;;;;;14.53;13.03;;;16.20;99.90;;;;;;5013714;28;20468;-74
2021/05/30 07:47:23;;;;;;;14.03;12.00;;;16.30;99.90;;;;;;5013784;28;20551;-74
2021/05/30 07:49:51;;;;;;;15.70;13.80;;;16.40;99.90;;;;;;5011990;28;20469;-74
2021/05/30 07:52:18;;;;;;;16.13;13.43;;;16.40;99.90;;;;;;5014084;28;20871;-74
2021/05/30 07:54:44;;;;;;;16.47;14.27;;;16.50;99.60;;;;;;5012171;28;20460;-74
2021/05/30 07:57:11;;;;;;;15.50;13.33;;;16.60;99.90;;;;;;5010854;28;20472;-74
2021/05/30 07:59:39;;;;;;;13.20;11.57;;;16.60;99.00;;;;;;4995884;28;20519;-74
2021/05/30 08:02:06;;;;;;;14.87;11.60;;;16.80;99.20;;;;;;5013958;28;20515;-74
2021/05/30 08:04:36;;;;;;;13.43;11.10;;;17.00;97.60;;;;;;4993926;28;20507;-74
2021/05/30 08:07:03;;;;;;;13.90;12.30;;;16.90;96.00;;;;;;5011486;28;20457;-73
2021/05/30 08:09:30;;;;;;;12.47;11.23;;;16.90;96.10;;;;;;4986640;28;20464;-74
2021/05/30 08:11:58;;;;;;;13.40;12.00;;;16.90;96.20;;;;;;5012036;28;20476;-74
2021/05/30 08:14:28;;;;;;;12.50;11.17;;;17.10;96.20;;;;;;5003646;28;20515;-73
2021/05/30 08:16:55;;;;;;;12.97;11.67;;;17.10;94.40;;;;;;4995283;28;20519;-74
2021/05/30 08:19:22;;;;;;;12.93;11.63;;;17.10;93.80;;;;;;4992416;28;20475;-73
2021/05/30 08:21:51;;;;;;;12.33;11.00;;;17.20;93.80;;;;;;5011855;28;20536;-73
2021/05/30 08:24:18;;;;;;;16.10;12.27;;;17.20;94.90;;;;;;4991997;28;20469;-73
2021/05/30 08:26:55;;;;;;;13.10;11.70;;;17.20;93.90;;;;;;4994308;28;20903;-73
2021/05/30 08:29:27;;;;;;;13.17;11.73;;;17.30;94.50;;;;;;4991772;28;20465;-73
2021/05/30 08:31:57;;;;;;;13.30;11.90;;;17.50;94.20;;;;;;5006315;28;20449;-73
2021/05/30 08:34:28;;;;;;;12.80;10.30;;;17.60;92.70;;;;;;5010319;28;20813;-73
2021/05/30 08:36:56;;;;;;;16.70;12.30;;;17.70;93.70;;;;;;4993434;28;20473;-73
2021/05/30 08:39:23;;;;;;;18.03;13.27;;;17.70;92.80;;;;;;5008939;28;20461;-73
2021/05/30 08:41:53;;;;;;;16.90;12.83;;;17.80;93.30;;;;;;4989512;28;20856;-73
2021/05/30 08:44:23;;;;;;;13.20;10.63;;;18.00;91.80;;;;;;5001178;28;20816;-73
2021/05/30 08:46:55;;;;;;;12.83;10.90;;;18.10;91.70;;;;;;5012489;28;20553;-73
2021/05/30 08:49:22;;;;;;;10.93;9.47;;;18.20;91.00;;;;;;4993319;28;20461;-73
2021/05/30 08:51:49;;;;;;;12.20;10.30;;;18.20;90.50;;;;;;4995065;28;20503;-73
2021/05/30 08:54:19;;;;;;;12.60;10.57;;;18.30;92.40;;;;;;4968393;28;21022;-73
2021/05/30 08:56:47;;;;;;;14.23;10.40;;;18.30;90.10;;;;;;4993310;28;20468;-73
2021/05/30 08:59:18;;;;;;;12.00;10.47;;;18.40;87.80;;;;;;4994142;28;20492;-73
2021/05/30 09:01:46;;;;;;;12.30;10.77;;;18.40;86.60;;;;;;4995181;28;20465;-73
2021/05/30 09:04:14;;;;;;;11.33;10.17;;;18.50;89.40;;;;;;4992474;28;20987;-73
2021/05/30 09:06:53;;;;;;;11.07;9.70;;;18.50;88.90;;;;;;4994588;28;20437;-73
2021/05/30 09:09:21;;;;;;;12.07;10.60;;;18.70;84.80;;;;;;5011289;28;20488;-73
2021/05/30 09:11:50;;;;;;;10.43;9.20;;;18.80;85.80;;;;;;5010885;28;20431;-73
2021/05/30 09:14:24;;;;;;;9.70;8.70;;;18.90;81.80;;;;;;4994106;28;20633;-73
2021/05/30 09:17:02;;;;;;;12.23;9.87;;;19.00;81.70;;;;;;4994421;28;20565;-73
2021/05/30 09:19:43;;;;;;;10.80;8.90;;;18.80;83.10;;;;;;4998743;28;20469;-73
2021/05/30 09:22:24;;;;;;;8.90;7.97;;;18.80;83.70;;;;;;5010675;28;20446;-73
2021/05/30 09:24:51;;;;;;;9.57;8.40;;;19.00;83.80;;;;;;5010649;28;20979;-73
2021/05/30 09:27:58;;;;;;;8.53;6.70;;;19.10;77.20;;;;;;4994143;28;20501;-73
2021/05/30 09:30:34;;;;;;;8.43;7.63;;;19.20;74.90;;;;;;5006527;28;21074;-73
2021/05/30 09:33:07;;;;;;;9.37;8.40;;;19.30;74.30;;;;;;4995032;28;20449;-73
2021/05/30 09:35:37;;;;;;;7.43;6.73;;;19.30;77.10;;;;;;5001633;28;20524;-73
2021/05/30 09:38:14;;;;;;;12.47;8.80;;;19.50;73.70;;;;;;5011718;28;20478;-73
2021/05/30 09:40:46;;;;;;;8.43;7.60;;;19.60;73.00;;;;;;4986110;28;20475;-73
2021/05/30 09:43:23;;;;;;;6.27;5.67;;;19.60;72.00;;;;;;5011668;28;20535;-73
2021/05/30 09:46:12;;;;;;;8.33;7.33;;;19.50;65.50;;;;;;5003007;28;20471;-73
2021/05/30 09:48:55;;;;;;;9.97;8.10;;;19.50;69.80;;;;;;5008489;28;20458;-73
2021/05/30 09:51:43;;;;;;;9.63;7.30;;;19.50;72.80;;;;;;5011293;28;20436;-73
2021/05/30 09:54:17;;;;;;;9.50;8.60;;;19.50;69.50;;;;;;4983458;28;20489;-73
2021/05/30 09:56:47;;;;;;;10.00;7.90;;;19.60;70.30;;;;;;5010116;28;20471;-73
2021/05/30 09:59:25;;;;;;;7.80;7.00;;;19.60;71.40;;;;;;5009564;28;20515;-73
2021/05/30 10:02:02;;;;;;;7.33;6.30;;;19.60;70.00;;;;;;5011323;28;20424;-73
2021/05/30 10:04:35;;;;;;;7.83;7.00;;;19.70;66.80;;;;;;5005484;28;20477;-73
2021/05/30 10:07:06;;;;;;;7.20;6.40;;;19.70;64.20;;;;;;4994366;28;20454;-73
2021/05/30 10:09:33;;;;;;;7.47;6.70;;;19.80;66.30;;;;;;4985678;28;21004;-73
2021/05/30 10:12:00;;;;;;;8.50;7.60;;;19.80;69.20;;;;;;5008490;28;20441;-73
2021/05/30 10:14:28;;;;;;;8.60;7.60;;;19.90;68.30;;;;;;4993169;28;20471;-73
2021/05/30 10:16:55;;;;;;;6.80;6.20;;;20.00;70.50;;;;;;5011454;28;20977;-73
2021/05/30 10:19:31;;;;;;;8.03;7.17;;;20.10;65.90;;;;;;5003117;28;21008;-73
2021/05/30 10:21:59;;;;;;;6.70;6.10;;;20.10;70.20;;;;;;4993832;28;20543;-73
2021/05/30 10:24:27;;;;;;;8.67;6.63;;;20.20;65.20;;;;;;5010895;28;20468;-73
2021/05/30 10:27:11;;;;;;;5.90;5.33;;;20.40;63.50;;;;;;5005955;28;20483;-72
2021/05/30 10:29:38;;;;;;;6.20;5.07;;;20.50;63.70;;;;;;4990926;28;20504;-73
2021/05/30 10:32:16;;;;;;;6.63;6.10;;;20.60;60.50;;;;;;4990503;28;20862;-72
2021/05/30 10:35:23;;;;;;;7.40;6.67;;;20.70;60.80;;;;;;4999110;28;20568;-72
2021/05/30 10:37:59;;;;;;;7.20;6.03;;;20.60;58.00;;;;;;5009944;28;20475;-72
2021/05/30 10:40:29;;;;;;;7.10;6.40;;;20.60;59.70;;;;;;4991875;28;20467;-72
2021/05/30 10:43:15;;;;;;;6.90;5.97;;;20.70;58.40;;;;;;5011551;28;20433;-73
2021/05/30 10:45:42;;;;;;;8.70;6.43;;;20.80;59.40;;;;;;5009395;28;20465;-73
2021/05/30 10:48:11;;;;;;;5.77;5.20;;;20.90;60.50;;;;;;5010751;28;20947;-70
2021/05/30 10:50:54;;;;;;;5.90;5.40;;;21.00;58.90;;;;;;5008383;28;21025;-70
2021/05/30 10:53:41;;;;;;;5.97;4.73;;;21.10;57.60;;;;;;4977515;28;20437;-70
2021/05/30 10:56:30;;;;;;;4.30;4.00;;;21.30;57.70;;;;;;5008808;28;20472;-70
2021/05/30 10:59:03;;;;;;;3.63;3.33;;;21.40;55.50;;;;;;4992397;28;20465;-72
2021/05/30 11:01:38;;;;;;;4.27;3.70;;;21.40;52.80;;;;;;5010106;28;20430;-73
2021/05/30 11:04:27;;;;;;;5.00;3.60;;;21.50;50.80;;;;;;5010901;28;20488;-73
2021/05/30 11:06:56;;;;;;;4.47;4.07;;;21.60;51.80;;;;;;5013611;28;20457;-73
2021/05/30 11:09:49;;;;;;;4.70;4.00;;;21.60;50.20;;;;;;5012521;28;20453;-73
2021/05/30 11:12:22;;;;;;;6.20;4.27;;;21.70;52.40;;;;;;5013891;28;20460;-72
2021/05/30 11:15:14;;;;;;;7.37;4.17;;;21.80;53.50;;;;;;5013912;28;21021;-71
2021/05/30 11:17:47;;;;;;;4.60;4.20;;;21.80;53.50;;;;;;4996856;28;20983;-71
2021/05/30 11:20:17;;;;;;;6.73;4.87;;;21.70;54.00;;;;;;5012402;28;20555;-71
2021/05/30 11:22:51;;;;;;;3.67;3.37;;;21.70;53.20;;;;;;4986792;28;20438;-71
2021/05/30 11:25:22;;;;;;;3.70;2.90;;;21.60;50.70;;;;;;5008766;28;20482;-71
2021/05/30 11:27:59;;;;;;;3.70;3.40;;;21.70;50.10;;;;;;4996796;28;20466;-71
2021/05/30 11:30:49;;;;;;;3.80;3.50;;;21.80;48.30;;;;;;5013602;28;20999;-72
2021/05/30 11:33:22;;;;;;;4.50;4.03;;;21.70;48.60;;;;;;5014066;28;20436;-73
2021/05/30 11:36:04;;;;;;;4.40;3.47;;;21.60;49.10;;;;;;5006934;28;20507;-73
2021/05/30 11:38:39;;;;;;;3.10;2.90;;;21.70;47.30;;;;;;5013592;28;20544;-72
2021/05/30 11:41:30;;;;;;;3.63;3.33;;;21.50;45.80;;;;;;4995142;28;20847;-73
2021/05/30 11:43:59;;;;;;;5.80;3.73;;;21.50;47.40;;;;;;5006090;28;20449;-72
2021/05/30 11:46:38;;;;;;;4.03;3.63;;;21.50;48.00;;;;;;5013987;28;20801;-73
2021/05/30 11:49:07;;;;;;;4.00;3.67;;;21.50;52.00;;;;;;4974789;28;20741;-73
2021/05/30 11:51:52;;;;;;;4.40;4.00;;;21.40;50.00;;;;;;4981571;28;20444;-73
2021/05/30 11:54:24;;;;;;;4.03;3.43;;;21.40;52.30;;;;;;5012948;28;20465;-73
2021/05/30 11:56:54;;;;;;;4.77;4.37;;;21.50;49.70;;;;;;5012300;28;20556;-72
2021/05/30 11:59:32;;;;;;;4.10;3.70;;;21.50;48.20;;;;;;5012958;28;20492;-73
2021/05/30 12:02:01;;;;;;;4.40;4.00;;;21.50;47.70;;;;;;4996842;28;20460;-73
2021/05/30 12:04:41;;;;;;;4.63;4.27;;;21.50;51.60;;;;;;5007984;28;20465;-73
2021/05/30 12:07:14;;;;;;;3.73;3.43;;;21.60;50.20;;;;;;5013613;28;20489;-73
2021/05/30 12:09:59;;;;;;;4.30;3.47;;;21.60;45.90;;;;;;4995528;28;20475;-73
2021/05/30 12:12:29;;;;;;;3.47;3.17;;;21.80;47.80;;;;;;4995414;28;20479;-73
2021/05/30 12:15:16;;;;;;;3.57;2.93;;;21.90;47.60;;;;;;5013034;28;20492;-73
2021/05/30 12:18:04;;;;;;;4.10;3.73;;;22.00;47.10;;;;;;5013535;28;20495;-73
2021/05/30 12:20:37;;;;;;;3.17;2.87;;;22.00;46.40;;;;;;4999901;28;20976;-73
2021/05/30 12:23:12;;;;;;;3.10;2.90;;;22.10;48.90;;;;;;5009812;28;20979;-73
2021/05/30 12:26:02;;;;;;;2.90;2.53;;;22.20;47.00;;;;;;4993442;28;20563;-70
2021/05/30 12:28:40;;;;;;;4.50;4.10;;;22.20;48.30;;;;;;5012908;28;20451;-73
2021/05/30 12:31:15;;;;;;;4.47;4.07;;;22.30;46.90;;;;;;5013146;28;20483;-73
2021/05/30 12:33:56;;;;;;;3.40;3.20;;;22.20;46.90;;;;;;4980725;28;20437;-73
2021/05/30 12:36:34;;;;;;;3.60;3.27;;;22.10;47.30;;;;;;4995231;28;21684;-73
2021/05/30 12:39:16;;;;;;;4.90;3.07;;;22.10;46.20;;;;;;4989166;28;20473;-73
2021/05/30 12:41:49;;;;;;;3.60;3.30;;;22.10;47.50;;;;;;4999388;28;20668;-73
2021/05/30 12:44:31;;;;;;;4.23;3.33;;;22.10;46.60;;;;;;5012168;28;20468;-73
2021/05/30 12:47:12;;;;;;;4.13;3.20;;;22.20;48.30;;;;;;5012734;28;20444;-73
2021/05/30 12:49:56;;;;;;;4.00;3.70;;;22.10;43.80;;;;;;5002818;28;20497;-73
2021/05/30 12:52:28;;;;;;;3.90;3.50;;;22.00;44.60;;;;;;4995840;28;20457;-72